Latest Weather Observations for Tewantin

IDQ60901

Issued at 8:51 am EST Saturday 22 July 2017 (issued every 10 minutes, with the page automatically refreshed every 10 minutes)

About weather observations | Map of Brisbane area stations | Latest observations for Brisbane area | Other Formats
Station Details ID: 040908 Name: TEWANTIN RSL PARK Lat: -26.39 Lon: 153.04 Height: 6.4 m
Data from the previous 72 hours. | See also: Recent months at Tewantin
Date/Time
EST
Temp
°C
App
Temp
°C
Dew
Point
°C
Rel
Hum
%
Delta-T
°C
Wind Press
QNH
hPa
Press
MSL
hPa
Rain since
9am
mm
Dir  Spd
km/h
Gust
km/h
Spd
kts
Gust
kts
22/08:30am 14.9 14.6 8.8 67 3.1 CALM 0 0 0 0 1023.5 1023.5 0.0
22/08:00am 12.3 12.1 9.1 81 1.6 CALM 0 0 0 0 1023.3 1023.3 0.0
22/07:30am 10.0 9.6 8.4 90 0.8 CALM 0 0 0 0 1023.0 1023.0 0.0
22/07:00am 8.6 8.1 7.8 95 0.4 CALM 0 0 0 0 1022.7 1022.7 0.0
22/06:30am 8.4 7.8 7.5 94 0.4 CALM 0 0 0 0 1022.5 1022.5 0.0
22/06:00am 8.5 7.7 6.6 88 0.9 CALM 0 6 0 3 1022.0 1022.0 0.0
22/05:30am 8.9 8.0 6.0 82 1.3 CALM 0 0 0 0 1021.6 1021.6 0.0
22/05:00am 8.9 7.8 5.1 77 1.7 CALM 0 0 0 0 1021.2 1021.2 0.0
22/04:30am 9.9 8.9 5.7 75 1.9 CALM 0 6 0 3 1020.9 1020.9 0.0
22/04:00am 10.5 9.5 5.7 72 2.2 CALM 0 0 0 0 1021.0 1021.0 0.0
22/03:30am 10.7 9.9 6.5 75 2.0 CALM 0 0 0 0 1021.1 1021.1 0.0
22/03:00am 10.9 9.7 6.5 74 2.1 S 2 6 1 3 1021.3 1021.3 0.0
22/02:30am 11.2 10.4 6.3 72 2.3 CALM 0 0 0 0 1021.2 1021.2 0.0
22/02:00am 11.2 9.3 6.5 73 2.2 S 6 7 3 4 1021.2 1021.2 0.0
22/01:30am 11.8 9.9 6.7 71 2.4 SSW 6 9 3 5 1021.3 1021.3 0.0
22/01:00am 11.9 10.1 7.0 72 2.3 S 6 9 3 5 1021.5 1021.5 0.0
22/12:30am 12.1 10.1 7.2 72 2.4 S 7 11 4 6 1021.6 1021.6 0.0
22/12:00am 12.0 10.2 7.9 76 2.0 S 7 9 4 5 1021.7 1021.7 0.0
 
Date/Time
EST
Temp
°C
App
Temp
°C
Dew
Point
°C
Rel
Hum
%
Delta-T
°C
Wind Press
QNH
hPa
Press
MSL
hPa
Rain since
9am
mm
Dir  Spd
km/h
Gust
km/h
Spd
kts
Gust
kts
21/11:30pm 11.8 10.1 7.7 76 2.0 S 6 9 3 5 1021.8 1021.8 0.0
21/11:00pm 11.8 10.0 7.9 77 1.9 S 7 9 4 5 1021.9 1021.9 0.0
21/10:30pm 11.8 9.9 7.5 75 2.1 SSW 7 9 4 5 1021.8 1021.8 0.0
21/10:00pm 11.4 10.9 7.9 79 1.7 CALM 0 6 0 3 1021.8 1021.8 0.0
21/09:30pm 11.1 10.2 7.6 79 1.7 SSW 2 7 1 4 1021.8 1021.8 0.0
21/09:00pm 11.4 10.8 7.5 77 1.9 CALM 0 0 0 0 1021.3 1021.3 0.0
21/08:30pm 11.3 11.0 8.7 84 1.3 CALM 0 2 0 1 1021.1 1021.1 0.0
21/08:00pm 11.5 11.1 8.2 80 1.6 CALM 0 4 0 2 1020.8 1020.8 0.0
21/07:30pm 12.0 11.5 7.9 76 2.0 CALM 0 0 0 0 1020.4 1020.4 0.0
21/07:00pm 13.1 12.0 6.9 66 3.0 SW 2 7 1 4 1020.0 1020.0 0.0
21/06:30pm 13.8 12.4 7.3 65 3.2 SW 4 9 2 5 1019.4 1019.4 0.0
21/06:00pm 14.9 14.2 7.0 59 3.9 CALM 0 0 0 0 1018.8 1018.8 0.0
21/05:30pm 16.4 14.8 6.5 52 4.8 SE 4 6 2 3 1018.3 1018.3 0.0
21/05:00pm 17.1 14.9 6.3 49 5.3 ESE 7 11 4 6 1018.0 1018.0 0.0
21/04:30pm 17.7 15.2 5.0 43 6.1 E 7 13 4 7 1017.5 1017.5 0.0
21/04:00pm 18.0 14.8 5.2 43 6.2 ENE 11 17 6 9 1017.1 1017.1 0.0
21/03:30pm 18.4 15.4 4.2 39 6.7 ESE 9 15 5 8 1017.0 1017.0 0.0
21/03:00pm 18.6 15.7 4.4 39 6.8 ENE 9 15 5 8 1016.9 1016.9 0.0
21/02:30pm 18.8 15.3 3.4 36 7.2 ESE 11 17 6 9 1017.2 1017.2 0.0
21/02:00pm 19.1 15.3 3.7 36 7.3 ESE 13 20 7 11 1017.3 1017.3 0.0
21/01:30pm 19.4 15.4 2.7 33 7.7 ESE 13 19 7 10 1017.4 1017.4 0.0
21/01:00pm 19.7 15.9 3.8 35 7.5 E 13 19 7 10 1017.7 1017.7 0.0
21/12:30pm 19.7 16.4 0.2 27 8.6 SSE 7 13 4 7 1017.9 1017.9 0.0
21/12:00pm 19.9 16.5 -0.7 25 8.9 SSE 7 13 4 7 1018.5 1018.5 0.0
21/11:30am 20.0 16.8 -0.6 25 9.0 SSW 6 9 3 5 1018.8 1018.8 0.0
21/11:00am 19.6 16.1 -1.5 24 9.0 S 7 13 4 7 1019.4 1019.4 0.0
21/10:30am 18.7 15.0 2.5 34 7.4 S 11 15 6 8 1019.4 1019.4 0.0
21/10:00am 18.4 16.7 3.8 38 6.8 N 2 7 1 4 1019.5 1019.5 0.0
21/09:30am 16.9 14.6 4.9 45 5.7 NW 6 9 3 5 1019.3 1019.3 0.0
21/09:00am 15.3 12.6 3.8 46 5.3 NW 7 11 4 6 1019.1 1019.1 0.0
21/08:30am 14.2 12.0 3.4 48 4.9 W 4 9 2 5 1018.9 1018.9 0.0
21/08:00am 12.9 11.2 4.1 55 4.0 WNW 2 7 1 4 1018.5 1018.5 0.0
21/07:30am 10.8 8.6 3.1 59 3.3 SW 4 7 2 4 1018.0 1018.0 0.0
21/07:00am 9.0 6.8 3.6 69 2.3 NNW 4 7 2 4 1017.7 1017.7 0.0
21/06:30am 8.5 6.1 2.1 64 2.7 W 4 9 2 5 1017.7 1017.7 0.0
21/06:00am 8.7 7.4 4.3 74 1.9 CALM 0 6 0 3 1017.3 1017.3 0.0
21/05:30am 8.8 7.2 2.6 65 2.6 CALM 0 6 0 3 1017.2 1017.2 0.0
21/05:00am 9.2 7.3 2.8 64 2.7 WNW 2 7 1 4 1016.5 1016.5 0.0
21/04:30am 9.4 6.8 3.2 65 2.7 NW 6 9 3 5 1016.3 1016.3 0.0
21/04:00am 9.8 8.0 5.4 74 2.0 N 4 9 2 5 1016.0 1016.0 0.0
21/03:30am 9.4 6.9 3.8 68 2.4 NW 6 7 3 4 1015.9 1015.9 0.0
21/03:00am 10.1 8.8 5.9 75 1.9 NE 2 7 1 4 1016.0 1016.0 0.0
21/02:30am 10.6 8.1 3.6 62 3.1 WSW 6 9 3 5 1016.0 1016.0 0.0
21/02:00am 11.4 8.7 3.7 59 3.4 WSW 7 11 4 6 1016.0 1016.0 0.0
21/01:30am 11.5 9.0 3.8 59 3.4 W 6 11 3 6 1016.2 1016.2 0.0
21/01:00am 11.9 9.5 4.2 59 3.5 WSW 6 11 3 6 1016.5 1016.5 0.0
21/12:30am 11.3 8.9 4.5 63 3.1 WSW 6 9 3 5 1016.4 1016.4 0.0
21/12:00am 11.3 10.6 6.8 74 2.1 CALM 0 0 0 0 1016.5 1016.5 0.0
 
Date/Time
EST
Temp
°C
App
Temp
°C
Dew
Point
°C
Rel
Hum
%
Delta-T
°C
Wind Press
QNH
hPa
Press
MSL
hPa
Rain since
9am
mm
Dir  Spd
km/h
Gust
km/h
Spd
kts
Gust
kts
20/11:30pm 11.5 9.1 4.5 62 3.2 WSW 6 9 3 5 1016.5 1016.5 0.0
20/11:00pm 11.9 9.6 4.9 62 3.2 SSW 6 7 3 4 1016.6 1016.6 0.0
20/10:30pm 12.9 11.0 5.1 59 3.6 SW 4 7 2 4 1016.6 1016.6 0.0
20/10:00pm 13.8 11.4 4.1 52 4.4 WSW 6 9 3 5 1016.7 1016.7 0.0
20/09:30pm 13.7 11.7 4.3 53 4.3 W 4 7 2 4 1016.9 1016.9 0.0
20/09:00pm 13.4 11.4 4.6 55 4.0 WNW 4 11 2 6 1016.7 1016.7 0.0
20/08:30pm 13.2 12.1 7.0 66 3.0 WSW 2 13 1 7 1016.6 1016.6 0.0
20/08:00pm 13.1 12.0 8.4 73 2.3 WNW 4 9 2 5 1016.5 1016.5 0.0
20/07:30pm 13.3 12.6 8.6 73 2.4 NNE 2 6 1 3 1016.4 1016.4 0.0
20/07:00pm 14.3 13.3 5.7 56 4.1 CALM 0 6 0 3 1016.2 1016.2 0.0
20/06:30pm 15.0 13.9 5.2 52 4.6 CALM 0 4 0 2 1015.9 1015.9 0.0
20/06:00pm 16.2 14.3 4.9 47 5.3 WSW 4 7 2 4 1015.4 1015.4 0.0
20/05:30pm 18.1 15.5 4.3 40 6.5 WSW 7 9 4 5 1015.1 1015.1 0.0
20/05:00pm 19.4 17.3 4.0 36 7.3 WSW 4 9 2 5 1015.0 1015.0 0.0
20/04:30pm 20.7 18.0 3.9 33 8.1 WSW 7 13 4 7 1014.5 1014.5 0.0
20/04:00pm 21.1 18.4 3.8 32 8.3 W 7 15 4 8 1014.3 1014.3 0.0
20/03:30pm 21.3 18.7 4.4 33 8.2 W 7 15 4 8 1014.5 1014.5 0.0
20/03:00pm 21.5 18.5 4.1 32 8.4 W 9 17 5 9 1014.5 1014.5 0.0
20/02:30pm 21.9 18.5 2.1 27 9.3 SW 9 20 5 11 1014.5 1014.5 0.0
20/02:00pm 22.0 18.5 3.6 30 8.9 SW 11 17 6 9 1014.7 1014.7 0.0
20/01:30pm 22.0 19.3 5.4 34 8.3 WNW 9 17 5 9 1014.9 1014.9 0.0
20/01:00pm 21.7 18.8 4.7 33 8.3 W 9 20 5 11 1015.5 1015.5 0.0
20/12:30pm 21.0 18.3 5.4 36 7.7 SW 9 15 5 8 1015.8 1015.8 0.0
20/12:00pm 20.4 18.3 5.6 38 7.3 W 6 11 3 6 1016.4 1016.4 0.0
20/11:30am 19.5 16.1 4.0 36 7.4 SW 11 19 6 10 1016.9 1016.9 0.0
20/11:00am 19.6 17.1 4.5 37 7.3 W 7 17 4 9 1017.5 1017.5 0.0
20/10:30am 18.4 15.5 4.6 40 6.6 WSW 9 17 5 9 1018.0 1018.0 0.0
20/10:00am 17.6 15.0 5.9 46 5.7 WSW 9 17 5 9 1018.3 1018.3 0.0
20/09:30am 17.3 14.5 5.3 45 5.8 W 9 17 5 9 1018.1 1018.1 0.0
20/09:00am 16.5 15.1 5.5 48 5.3 W 2 11 1 6 1017.8 1017.8 0.0
20/08:30am 14.6 12.2 5.4 54 4.3 N 7 9 4 5 1017.8 1017.8 0.0
20/08:00am 14.0 13.1 5.9 58 3.8 CALM 0 6 0 3 1017.6 1017.6 0.0
20/07:30am 11.8 11.4 8.3 79 1.7 CALM 0 0 0 0 1017.0 1017.0 0.0
20/07:00am 10.0 8.7 5.8 75 1.9 NNW 2 7 1 4 1016.9 1016.9 0.0
20/06:30am 10.4 8.8 4.5 67 2.6 SSW 2 7 1 4 1016.4 1016.4 0.0
20/06:00am 10.8 8.3 4.5 65 2.8 SSW 7 9 4 5 1016.1 1016.1 0.0
20/05:30am 9.9 7.3 4.3 68 2.5 SW 7 13 4 7 1015.7 1015.7 0.0
20/05:00am 10.7 8.7 4.2 64 2.9 WSW 4 9 2 5 1015.5 1015.5 0.0
20/04:30am 10.3 7.8 4.0 65 2.8 NW 6 13 3 7 1015.1 1015.1 0.0
20/04:00am 10.2 7.8 4.1 66 2.7 W 6 11 3 6 1014.5 1014.5 0.0
20/03:30am 10.5 8.5 6.3 75 2.0 NNE 6 9 3 5 1014.6 1014.6 0.0
20/03:00am 11.2 9.4 5.3 67 2.7 ENE 4 7 2 4 1014.2 1014.2 0.0
20/02:30am 11.3 9.0 4.7 64 3.0 E 6 11 3 6 1014.2 1014.2 0.0
20/02:00am 12.3 9.6 3.8 56 3.8 WSW 7 13 4 7 1014.1 1014.1 0.0
20/01:30am 12.0 10.2 3.3 55 3.8 WSW 2 6 1 3 1014.7 1014.7 0.0
20/01:00am 13.6 12.2 3.4 50 4.6 CALM 0 0 0 0 1014.9 1014.9 0.0
20/12:30am 14.5 11.7 3.0 46 5.2 SSW 7 13 4 7 1014.8 1014.8 0.0
20/12:00am 14.0 12.1 2.9 47 4.9 W 2 6 1 3 1014.7 1014.7 0.0
 
Date/Time
EST
Temp
°C
App
Temp
°C
Dew
Point
°C
Rel
Hum
%
Delta-T
°C
Wind Press
QNH
hPa
Press
MSL
hPa
Rain since
9am
mm
Dir  Spd
km/h
Gust
km/h
Spd
kts
Gust
kts
19/11:30pm 15.0 11.1 3.2 45 5.3 SW 13 32 7 17 1014.7 1014.7 0.0
19/11:00pm 15.4 11.5 3.2 44 5.5 SW 13 30 7 16 1014.7 1014.7 0.0
19/10:30pm 15.3 12.1 3.1 44 5.5 SW 9 24 5 13 1015.2 1015.2 0.0
19/10:00pm 15.9 11.4 2.3 40 6.1 WSW 15 24 8 13 1015.1 1015.1 0.0
19/09:30pm 15.9 12.3 2.7 41 5.9 SW 11 20 6 11 1015.0 1015.0 0.0
19/09:00pm 15.8 12.5 2.6 41 5.9 SW 9 15 5 8 1015.1 1015.1 0.0
19/08:30pm 15.7 12.8 2.8 42 5.8 SSW 7 13 4 7 1015.0 1015.0 0.0
19/08:00pm 16.3 13.0 2.3 39 6.3 SW 9 19 5 10 1014.1 1014.1 0.0
19/07:30pm 15.8 12.1 2.2 40 6.1 WSW 11 22 6 12 1013.5 1013.5 0.0
19/07:00pm 16.1 12.8 2.2 39 6.2 W 9 17 5 9 1013.4 1013.4 0.0
19/06:30pm 16.6 13.6 1.9 37 6.6 WSW 7 15 4 8 1013.2 1013.2 0.0
19/06:00pm 17.3 13.5 1.7 35 7.0 SW 11 22 6 12 1012.8 1012.8 0.0
19/05:30pm 17.6 13.7 1.2 33 7.3 SW 11 22 6 12 1012.2 1012.2 0.0
19/05:00pm 18.1 13.9 1.6 33 7.4 SW 13 22 7 12 1011.6 1011.6 0.0
19/04:30pm 19.1 14.4 1.1 30 8.1 WSW 15 30 8 16 1011.1 1011.1 0.0
19/04:00pm 19.4 13.9 0.4 28 8.4 WSW 19 33 10 18 1010.7 1010.7 0.0
19/03:30pm 19.8 13.7 0.3 27 8.6 WSW 22 39 12 21 1010.4 1010.4 0.0
19/03:00pm 20.1 16.0 2.0 30 8.3 WSW 13 28 7 15 1010.4 1010.4 0.0
19/02:30pm 20.8 16.9 1.1 27 8.9 W 11 22 6 12 1010.3 1010.3 0.0
19/02:00pm 21.2 17.2 0.4 25 9.4 W 11 22 6 12 1010.3 1010.3 0.0
19/01:30pm 20.8 16.1 0.6 26 9.1 W 15 30 8 16 1010.6 1010.6 0.0
19/01:00pm 20.9 16.5 0.2 25 9.3 WSW 13 26 7 14 1011.0 1011.0 0.0
19/12:30pm 20.7 16.9 1.6 28 8.8 W 11 24 6 13 1011.6 1011.6 0.0
19/12:00pm 20.4 16.2 3.6 33 8.0 WSW 15 33 8 18 1012.4 1012.4 0.0
19/11:30am 20.0 15.2 2.8 32 8.0 WSW 17 28 9 15 1012.9 1012.9 0.0
19/11:00am 20.6 17.0 2.9 31 8.3 WSW 11 28 6 15 1013.3 1013.3 0.0
19/10:30am 20.8 17.5 4.4 34 7.9 WSW 11 24 6 13 1013.5 1013.5 0.0
19/10:00am 20.4 17.1 4.8 36 7.6 W 11 24 6 13 1013.6 1013.6 0.0
19/09:30am 20.2 17.2 5.8 39 7.1 W 11 20 6 11 1013.8 1013.8 0.0
19/09:00am 19.9 17.6 7.3 44 6.4 WSW 9 20 5 11 1013.9 1013.9 0.0

Latest Capital City Observations: Canberra | Sydney | Melbourne | Brisbane | Adelaide | Perth | Hobart | Darwin

Other Formats:

Comma delimited format used in spreadsheet applications
http://www.bom.gov.au/fwo/IDQ60901/IDQ60901.94570.axf

JavaScript Object Notation format (JSON) in row-major order
http://www.bom.gov.au/fwo/IDQ60901/IDQ60901.94570.json